Карточка аэропорта UAKK

Внимание!
Информация на этой странице в стадии наполнения.
Если вы не увидели какой-то информации, или заметили неточность - пожалуйста сообщите нам!
Спасибо!
Команда RU-STAFF
Название аэропортаКараганда
Название аэропорта (англ.)Karaganda
Превышение1768 ft. (538.9 m.)
Координаты49°40.302', 73°20.118'
Высота перехода10000ft
Эшелон переходаFL120, QNH<733:FL130
Коды ответчика0630-0637, 7220-7227
Зона ОрВДАстана РПИ (UACN)
Данные METARUAKK 211000Z 22005MPS CAVOK 29/08 Q1002 NOSIG RMK QFE705/0940
Проноз погоды (TAF)UAKK 210500Z 2106/2206 24005MPS 9999 SCT040 SCT100 TX30/2109Z TN17/2124Z TEMPO 2106/2112 27012MPS SCT030CB TEMPO 2112/2118 27006MPS 5000 -SHRA BKN020CB BECMG 2118/2120 VRB02MPS
NOTAMshow/hide NOTAM
AWOS   TABLE

Информация о ВПП

ВПП Длина ВПП (м.) Покрытие Курс ВПП Частота ILS
233601Железобетон230111.7
053601Железобетон50109.9

Диспетчерские позиции




Спутниковое изображение